Terminal Aerodrome Forecast
Issued by NWS Charleston, WV

Home | Current Version | Previous Version | Text Only | Print | Product List | Glossary On
Versions: 1 2 3 4 5 6 7 8 9 10 11 12 13 14 15 16 17 18 19 20 21
000
FTUS41 KRLX 270208 AAA
TAFBKW
TAF AMD
KBKW 270208Z 2702/2724 17006KT P6SM BKN070
     FM270400 17007KT 4SM SHRA BR SCT025 OVC050
      TEMPO 2704/2706 2SM TSRA BR BKN020CB
     FM270700 19005KT 4SM -SHRA BR SCT001 BKN020
     FM271400 23006KT P6SM BKN025
     FM271900 23007KT P6SM BKN035=

USA.gov is the U.S. government's official web portal to all federal, state and local government web resources and services.